Time;durP1;ratioP1;P1;durP2;ratioP2;P2;SDS_P1;SDS_P2;PMS_P1;PMS_P2;Temp;Humidity;BMP_temperature;BMP_pressure;BME280_temperature;BME280_humidity;BME280_pressure;Samples;Min_cycle;Max_cycle;Signal;HPM_P1;HPM_P2
2022/09/13 00:01:30;;;;;;;3.80;1.30;;;24.70;48.70;;;;;;5050812;28;20563;-61
2022/09/13 00:03:57;;;;;;;1.42;1.20;;;24.70;48.70;;;;;;5045148;28;20053;-61
2022/09/13 00:06:24;;;;;;;1.27;1.17;;;24.60;48.60;;;;;;5050916;28;20052;-61
2022/09/13 00:08:53;;;;;;;1.77;1.20;;;24.60;48.60;;;;;;5049973;28;20405;-62
2022/09/13 00:11:23;;;;;;;1.33;1.23;;;24.60;48.60;;;;;;5033011;28;20143;-61
2022/09/13 00:13:51;;;;;;;1.52;1.42;;;24.60;48.60;;;;;;5050020;28;20082;-61
2022/09/13 00:16:20;;;;;;;1.85;1.42;;;24.60;48.60;;;;;;5049803;28;20056;-61
2022/09/13 00:18:47;;;;;;;1.50;1.40;;;24.60;48.60;;;;;;5050716;28;20064;-61
2022/09/13 00:21:17;;;;;;;2.63;1.63;;;24.60;48.60;;;;;;5049971;28;20107;-61
2022/09/13 00:23:47;;;;;;;1.48;1.38;;;24.60;48.60;;;;;;5048850;28;20045;-61
2022/09/13 00:26:17;;;;;;;1.15;1.15;;;24.60;48.70;;;;;;5049809;28;20156;-61
2022/09/13 00:28:45;;;;;;;;;;;24.60;48.70;;;;;;5049897;28;20060;-61
2022/09/13 00:31:12;;;;;;;1.67;1.27;;;24.60;48.70;;;;;;5049938;28;19952;-61
2022/09/13 00:33:39;;;;;;;2.47;1.70;;;24.60;48.70;;;;;;5049640;28;20473;-61
2022/09/13 00:36:09;;;;;;;1.92;1.48;;;24.60;48.70;;;;;;5045587;28;20044;-61
2022/09/13 00:38:39;;;;;;;1.15;1.10;;;24.50;48.70;;;;;;5049166;28;20045;-61
2022/09/13 00:41:11;;;;;;;1.55;1.45;;;24.60;48.80;;;;;;5049785;28;20040;-61
2022/09/13 00:43:49;;;;;;;1.52;1.33;;;24.60;48.70;;;;;;5050101;28;20409;-61
2022/09/13 00:46:41;;;;;;;4.35;1.40;;;24.60;48.70;;;;;;5048796;28;20048;-61
2022/09/13 00:49:18;;;;;;;1.55;1.45;;;24.50;48.70;;;;;;5036268;28;20213;-61
2022/09/13 00:51:52;;;;;;;1.70;1.45;;;24.60;48.80;;;;;;5048781;28;20493;-61
2022/09/13 00:54:21;;;;;;;1.38;1.30;;;24.60;48.80;;;;;;5048761;28;20045;-61
2022/09/13 00:56:54;;;;;;;1.73;1.38;;;24.60;48.80;;;;;;5046092;28;20041;-61
2022/09/13 00:59:26;;;;;;;2.13;1.48;;;24.60;48.80;;;;;;5030962;28;20549;-61
2022/09/13 01:01:56;;;;;;;1.30;1.30;;;24.50;48.70;;;;;;5048819;28;20048;-61
2022/09/13 01:04:29;;;;;;;3.13;1.73;;;24.50;48.70;;;;;;5048724;28;20056;-61
2022/09/13 01:07:01;;;;;;;1.90;1.13;;;24.60;48.80;;;;;;5049357;28;20063;-61
2022/09/13 01:09:31;;;;;;;1.77;1.55;;;24.50;48.70;;;;;;5044280;28;20056;-61
2022/09/13 01:12:07;;;;;;;1.58;1.48;;;24.50;48.70;;;;;;5048833;28;20047;-61
2022/09/13 01:14:34;;;;;;;1.45;1.30;;;24.50;48.70;;;;;;5049108;28;20041;-61
2022/09/13 01:17:02;;;;;;;1.42;1.33;;;24.50;48.70;;;;;;5048827;28;20524;-61
2022/09/13 01:19:30;;;;;;;1.35;1.25;;;24.50;48.80;;;;;;5048993;28;20052;-61
2022/09/13 01:22:23;;;;;;;1.30;1.20;;;24.50;48.70;;;;;;5030333;28;20049;-61
2022/09/13 01:25:18;;;;;;;1.70;1.60;;;24.50;48.80;;;;;;5029096;28;20401;-61
2022/09/13 01:28:09;;;;;;;1.15;1.15;;;24.50;48.80;;;;;;5028428;28;20053;-61
2022/09/13 01:30:50;;;;;;;1.25;1.15;;;24.50;48.70;;;;;;5032225;28;20053;-61
2022/09/13 01:33:33;;;;;;;1.20;1.10;;;24.50;48.70;;;;;;5048810;28;20048;-61
2022/09/13 01:36:18;;;;;;;1.30;1.20;;;24.50;48.70;;;;;;5048429;28;20053;-61
2022/09/13 01:39:04;;;;;;;1.65;1.25;;;24.50;48.70;;;;;;5030891;28;20148;-61
2022/09/13 01:42:10;;;;;;;1.92;1.00;;;24.60;48.80;;;;;;5043870;28;20617;-61
2022/09/13 01:45:03;;;;;;;1.50;1.40;;;24.50;48.70;;;;;;5048193;28;20046;-61
2022/09/13 01:47:39;;;;;;;1.05;1.05;;;24.50;48.70;;;;;;5048677;28;20205;-61
2022/09/13 01:50:31;;;;;;;1.25;1.10;;;24.50;48.70;;;;;;5032098;28;20051;-61
2022/09/13 01:53:34;;;;;;;1.23;1.15;;;24.50;48.70;;;;;;5032132;28;20357;-61
2022/09/13 01:56:22;;;;;;;1.65;1.55;;;24.50;48.60;;;;;;5048009;28;20049;-61
2022/09/13 01:58:56;;;;;;;1.15;1.13;;;24.50;48.60;;;;;;5048186;28;20410;-61
2022/09/13 02:01:41;;;;;;;2.45;1.50;;;24.60;48.70;;;;;;5048527;28;20055;-61
2022/09/13 02:04:14;;;;;;;0.90;0.90;;;24.50;49.10;;;;;;5046822;28;20214;-61
2022/09/13 02:07:03;;;;;;;1.23;1.15;;;24.60;48.60;;;;;;5048231;28;20057;-61
2022/09/13 02:09:35;;;;;;;1.23;1.15;;;24.60;48.60;;;;;;5047710;28;20053;-61
2022/09/13 02:12:22;;;;;;;1.10;1.00;;;24.50;48.60;;;;;;5043734;28;20041;-61
2022/09/13 02:15:01;;;;;;;1.38;1.27;;;24.50;48.60;;;;;;5047722;28;20227;-61
2022/09/13 02:17:36;;;;;;;1.10;1.10;;;24.50;48.60;;;;;;5047362;28;20681;-61
2022/09/13 02:20:11;;;;;;;1.08;1.08;;;24.50;48.60;;;;;;5030635;28;20136;-61
2022/09/13 02:22:45;;;;;;;1.27;1.15;;;24.50;48.60;;;;;;5047135;28;20051;-61
2022/09/13 02:25:16;;;;;;;1.30;1.20;;;24.50;48.60;;;;;;5048353;28;20053;-61
2022/09/13 02:27:48;;;;;;;1.13;1.02;;;24.50;48.60;;;;;;5047305;28;20052;-61
2022/09/13 02:30:16;;;;;;;1.30;1.20;;;24.50;48.60;;;;;;5047413;28;20489;-62
2022/09/13 02:33:00;;;;;;;1.60;1.50;;;24.50;48.60;;;;;;5047369;28;20044;-61
2022/09/13 02:35:35;;;;;;;1.25;1.15;;;24.50;48.70;;;;;;5047402;28;20041;-61
2022/09/13 02:38:14;;;;;;;1.00;1.00;;;24.50;48.70;;;;;;5047712;28;20055;-61
2022/09/13 02:40:52;;;;;;;1.40;1.30;;;24.50;48.70;;;;;;5029782;28;20048;-61
2022/09/13 02:43:25;;;;;;;2.70;1.20;;;24.50;48.70;;;;;;5043144;28;20708;-61
2022/09/13 02:46:08;;;;;;;1.02;0.98;;;24.50;48.70;;;;;;5046822;28;20041;-61
2022/09/13 02:48:51;;;;;;;1.20;1.20;;;24.50;48.70;;;;;;5050806;28;20123;-61
2022/09/13 02:51:46;;;;;;;2.88;1.40;;;24.50;49.20;;;;;;5051699;28;20400;-62
2022/09/13 02:54:42;;;;;;;1.30;1.20;;;24.50;48.70;;;;;;5051903;28;20052;-61
2022/09/13 02:57:34;;;;;;;1.55;1.13;;;24.50;48.70;;;;;;5051391;28;20049;-61
2022/09/13 03:00:02;;;;;;;1.55;1.23;;;24.50;48.70;;;;;;5051270;28;20548;-61
2022/09/13 03:02:32;;;;;;;2.17;1.27;;;24.50;48.70;;;;;;5050727;28;20041;-61
2022/09/13 03:05:00;;;;;;;;;;;24.50;48.70;;;;;;5051039;28;20469;-61
2022/09/13 03:07:27;;;;;;;1.50;1.40;;;24.50;48.70;;;;;;5047917;28;19920;-61
2022/09/13 03:10:00;;;;;;;1.15;1.15;;;24.50;48.70;;;;;;5051214;28;20362;-61
2022/09/13 03:12:54;;;;;;;1.55;1.40;;;24.50;48.70;;;;;;5051296;28;20041;-61
2022/09/13 03:15:53;;;;;;;1.65;1.38;;;24.50;49.30;;;;;;5046569;28;20330;-63
2022/09/13 03:18:53;;;;;;;1.13;1.02;;;24.50;48.70;;;;;;5050795;28;20131;-61
2022/09/13 03:21:50;;;;;;;1.38;1.27;;;24.50;48.80;;;;;;5050378;28;20520;-61
2022/09/13 03:24:24;;;;;;;1.05;1.05;;;24.40;48.70;;;;;;5036116;28;20509;-61
2022/09/13 03:27:26;;;;;;;1.35;1.30;;;24.50;48.70;;;;;;5049841;28;20049;-61
2022/09/13 03:30:05;;;;;;;1.60;1.30;;;24.50;48.70;;;;;;5048944;28;20056;-61
2022/09/13 03:32:57;;;;;;;1.17;1.10;;;24.50;48.70;;;;;;5045106;28;20520;-61
2022/09/13 03:35:34;;;;;;;2.25;1.55;;;24.50;48.70;;;;;;5045303;28;20052;-64
2022/09/13 03:38:08;;;;;;;1.60;1.50;;;24.40;48.70;;;;;;5031971;28;20437;-61
2022/09/13 03:40:44;;;;;;;1.42;1.30;;;24.40;48.70;;;;;;5048029;28;20132;-61
2022/09/13 03:43:21;;;;;;;1.83;1.60;;;24.50;49.30;;;;;;5050250;28;20056;-61
2022/09/13 03:45:53;;;;;;;1.55;1.40;;;24.50;48.70;;;;;;5050275;28;20402;-61
2022/09/13 03:48:22;;;;;;;1.30;1.20;;;24.50;48.70;;;;;;5045874;28;20048;-61
2022/09/13 03:50:49;;;;;;;1.27;1.23;;;24.50;48.70;;;;;;5027023;28;20063;-61
2022/09/13 03:53:24;;;;;;;1.73;1.20;;;24.50;48.60;;;;;;5048999;28;20367;-61
2022/09/13 03:55:52;;;;;;;1.75;1.50;;;24.50;48.60;;;;;;5036642;28;20045;-61
2022/09/13 03:58:20;;;;;;;1.58;1.33;;;24.40;48.60;;;;;;5014311;28;20049;-61
2022/09/13 04:00:47;;;;;;;1.20;1.10;;;24.50;48.60;;;;;;5045316;28;20033;-61
2022/09/13 04:03:15;;;;;;;1.33;1.23;;;24.40;48.50;;;;;;5048966;28;20413;-61
2022/09/13 04:05:42;;;;;;;1.80;1.15;;;24.50;48.50;;;;;;5049556;28;20055;-61
2022/09/13 04:08:09;;;;;;;1.40;1.38;;;24.50;48.50;;;;;;5050591;28;20045;-61
2022/09/13 04:10:36;;;;;;;2.20;1.27;;;24.40;48.50;;;;;;5050168;28;20049;-61
2022/09/13 04:13:03;;;;;;;0.90;0.90;;;24.40;48.50;;;;;;5050249;28;20041;-61
2022/09/13 04:15:31;;;;;;;1.48;1.38;;;24.50;48.50;;;;;;5050265;28;20049;-62
2022/09/13 04:17:59;;;;;;;1.10;0.98;;;24.40;48.50;;;;;;5049841;28;20597;-61
2022/09/13 04:20:28;;;;;;;1.88;1.52;;;24.50;48.50;;;;;;5045260;28;20049;-61
2022/09/13 04:22:56;;;;;;;1.35;1.20;;;24.40;48.50;;;;;;5049479;28;20045;-61
2022/09/13 04:25:23;;;;;;;1.65;1.30;;;24.40;48.50;;;;;;5032115;28;20052;-61
2022/09/13 04:27:54;;;;;;;1.33;1.23;;;24.50;48.50;;;;;;5049578;28;20056;-61
2022/09/13 04:30:22;;;;;;;1.80;1.15;;;24.50;48.50;;;;;;5049123;28;20049;-61
2022/09/13 04:32:49;;;;;;;1.90;1.50;;;24.50;48.60;;;;;;5043403;28;20374;-61
2022/09/13 04:35:18;;;;;;;1.30;1.20;;;24.40;48.50;;;;;;5013540;28;20042;-61
2022/09/13 04:37:45;;;;;;;2.40;1.00;;;24.40;48.50;;;;;;5030024;28;20056;-61
2022/09/13 04:40:13;;;;;;;2.03;1.33;;;24.50;48.50;;;;;;5036323;28;20502;-61
2022/09/13 04:42:42;;;;;;;1.23;1.13;;;24.40;48.50;;;;;;5048254;28;20060;-61
2022/09/13 04:45:09;;;;;;;1.25;1.15;;;24.40;48.50;;;;;;5048648;28;20051;-61
2022/09/13 04:47:37;;;;;;;1.73;1.35;;;24.40;48.50;;;;;;5045379;28;20045;-62
2022/09/13 04:50:05;;;;;;;2.45;1.15;;;24.40;48.40;;;;;;5046519;28;20080;-61
2022/09/13 04:52:33;;;;;;;1.00;1.00;;;24.40;48.40;;;;;;5044888;28;20052;-61
2022/09/13 04:55:00;;;;;;;1.23;1.10;;;24.40;48.50;;;;;;5044275;28;20424;-61
2022/09/13 04:57:28;;;;;;;1.35;1.27;;;24.50;48.50;;;;;;5030685;28;20049;-61
2022/09/13 04:59:55;;;;;;;1.20;1.10;;;24.40;48.40;;;;;;5047272;28;20048;-61
2022/09/13 05:02:22;;;;;;;1.70;1.60;;;24.40;48.40;;;;;;5048580;28;20258;-61
2022/09/13 05:04:49;;;;;;;1.52;1.42;;;24.50;48.50;;;;;;5045653;28;20049;-61
2022/09/13 05:07:16;;;;;;;2.55;1.50;;;24.50;48.40;;;;;;5046178;28;20051;-61
2022/09/13 05:09:44;;;;;;;1.88;1.77;;;24.50;48.40;;;;;;5046313;28;20083;-61
2022/09/13 05:12:11;;;;;;;1.42;1.40;;;24.50;48.30;;;;;;5043161;28;20052;-61
2022/09/13 05:14:38;;;;;;;2.65;2.03;;;24.50;48.30;;;;;;5043010;28;20080;-62
2022/09/13 05:17:05;;;;;;;1.65;1.55;;;24.40;48.10;;;;;;5046104;28;20056;-61
2022/09/13 05:19:32;;;;;;;3.17;1.60;;;24.30;48.20;;;;;;5047496;28;20136;-64
2022/09/13 05:22:00;;;;;;;1.73;1.52;;;24.10;48.40;;;;;;5029390;28;20055;-60
2022/09/13 05:24:28;;;;;;;1.60;1.50;;;23.90;49.30;;;;;;5040414;28;20056;-62
2022/09/13 05:26:55;;;;;;;1.83;1.58;;;23.70;49.40;;;;;;5037542;28;20081;-61
2022/09/13 05:29:26;;;;;;;1.88;1.70;;;23.60;50.20;;;;;;5041184;28;20055;-61
2022/09/13 05:31:53;;;;;;;2.60;1.92;;;23.60;50.50;;;;;;5024297;28;20055;-62
2022/09/13 05:34:20;;;;;;;3.97;2.05;;;23.60;51.10;;;;;;5040582;28;20056;-62
2022/09/13 05:36:49;;;;;;;2.28;1.88;;;23.70;50.60;;;;;;5015642;28;20049;-62
2022/09/13 05:39:21;;;;;;;4.80;2.50;;;23.80;50.50;;;;;;5021627;28;20059;-61
2022/09/13 05:42:08;;;;;;;2.40;2.03;;;23.90;50.20;;;;;;5030195;28;20049;-62
2022/09/13 05:44:36;;;;;;;2.25;1.92;;;24.00;49.90;;;;;;5024514;28;20136;-61
2022/09/13 05:47:04;;;;;;;4.35;2.35;;;24.10;49.50;;;;;;5031793;28;20611;-62
2022/09/13 05:49:31;;;;;;;2.80;2.25;;;24.20;49.20;;;;;;5031289;28;20128;-61
2022/09/13 05:51:58;;;;;;;4.25;2.85;;;24.20;48.80;;;;;;5029389;28;20052;-62
2022/09/13 05:54:26;;;;;;;3.22;2.40;;;24.30;48.50;;;;;;5028960;28;20077;-62
2022/09/13 05:56:56;;;;;;;7.85;2.60;;;24.30;48.30;;;;;;5036885;28;20583;-63
2022/09/13 05:59:23;;;;;;;;;;;24.40;48.10;;;;;;5033653;28;20130;-61
2022/09/13 06:01:51;;;;;;;5.20;2.40;;;24.40;47.90;;;;;;5028805;28;19921;-62
2022/09/13 06:04:19;;;;;;;3.67;2.42;;;24.50;47.80;;;;;;5032152;28;20049;-62
2022/09/13 06:06:46;;;;;;;3.67;2.42;;;24.50;47.60;;;;;;5031531;28;20040;-61
2022/09/13 06:09:13;;;;;;;3.65;2.42;;;24.50;47.50;;;;;;5030199;28;20564;-60
2022/09/13 06:11:40;;;;;;;3.63;2.28;;;24.50;47.60;;;;;;5029787;28;20411;-60
2022/09/13 06:14:08;;;;;;;7.15;3.30;;;24.60;47.60;;;;;;5035714;28;20059;-62
2022/09/13 06:16:35;;;;;;;7.20;2.92;;;24.60;48.00;;;;;;5035195;28;20381;-62
2022/09/13 06:19:03;;;;;;;8.80;3.22;;;24.60;48.20;;;;;;5034312;28;20057;-64
2022/09/13 06:21:31;;;;;;;7.38;2.78;;;24.70;48.30;;;;;;5031723;28;20397;-63
2022/09/13 06:23:58;;;;;;;4.00;2.35;;;24.70;48.20;;;;;;5033687;28;20052;-60
2022/09/13 06:26:27;;;;;;;3.78;2.55;;;24.80;48.10;;;;;;5025267;28;20100;-62
2022/09/13 06:28:56;;;;;;;5.28;2.60;;;24.80;47.90;;;;;;5031519;28;20060;-62
2022/09/13 06:31:25;;;;;;;3.73;2.80;;;24.90;47.80;;;;;;5031334;28;20052;-61
2022/09/13 06:33:58;;;;;;;4.45;2.40;;;24.90;47.70;;;;;;5033118;28;20041;-60
2022/09/13 06:36:25;;;;;;;6.20;2.75;;;25.00;47.70;;;;;;5037647;28;20049;-60
2022/09/13 06:38:52;;;;;;;2.97;2.47;;;25.10;47.80;;;;;;5031015;28;20123;-61
2022/09/13 06:41:22;;;;;;;5.10;2.42;;;25.10;47.70;;;;;;5036686;28;20057;-60
2022/09/13 06:43:54;;;;;;;4.32;2.40;;;25.10;47.70;;;;;;5028350;28;20051;-62
2022/09/13 06:46:22;;;;;;;3.67;2.28;;;25.20;47.70;;;;;;5034605;28;20055;-61
2022/09/13 06:48:52;;;;;;;3.65;2.83;;;25.20;47.40;;;;;;5016708;28;20041;-63
2022/09/13 06:51:21;;;;;;;3.40;2.15;;;25.30;47.30;;;;;;5013899;28;20057;-58
2022/09/13 06:53:50;;;;;;;3.47;2.30;;;25.30;47.30;;;;;;5032357;28;20041;-61
2022/09/13 06:56:27;;;;;;;2.60;2.40;;;25.40;47.30;;;;;;5031020;28;20485;-61
2022/09/13 06:58:56;;;;;;;3.17;2.15;;;25.40;47.20;;;;;;5034448;28;20140;-61
2022/09/13 07:01:27;;;;;;;2.60;2.40;;;25.50;47.20;;;;;;5038123;28;20481;-63
2022/09/13 07:03:59;;;;;;;7.95;2.72;;;25.50;47.10;;;;;;5025846;28;20508;-62
2022/09/13 07:06:30;;;;;;;2.88;2.45;;;25.60;46.90;;;;;;5038645;28;20067;-61
2022/09/13 07:08:59;;;;;;;5.28;2.47;;;25.60;46.80;;;;;;5032362;28;20048;-60
2022/09/13 07:11:29;;;;;;;5.45;2.60;;;25.70;46.70;;;;;;5031984;28;20059;-62
2022/09/13 07:13:57;;;;;;;4.93;2.20;;;25.70;46.60;;;;;;5033265;28;20586;-62
2022/09/13 07:16:27;;;;;;;8.02;2.63;;;25.80;46.50;;;;;;5033495;28;20477;-60
2022/09/13 07:18:56;;;;;;;6.27;2.87;;;25.80;46.30;;;;;;5036926;28;20049;-61
2022/09/13 07:21:23;;;;;;;3.15;2.03;;;25.90;46.20;;;;;;5038067;28;20049;-60
2022/09/13 07:23:52;;;;;;;4.28;2.83;;;25.90;46.00;;;;;;5044976;28;20048;-62
2022/09/13 07:26:20;;;;;;;5.45;2.97;;;25.90;45.90;;;;;;5038793;28;20045;-60
2022/09/13 07:28:51;;;;;;;6.32;2.42;;;25.90;45.70;;;;;;5034275;28;20370;-61
2022/09/13 07:31:21;;;;;;;3.97;3.13;;;26.00;45.60;;;;;;5026425;28;20073;-61
2022/09/13 07:33:58;;;;;;;4.45;2.90;;;26.00;45.50;;;;;;5034913;28;20055;-61
2022/09/13 07:36:26;;;;;;;6.88;2.20;;;26.10;45.30;;;;;;5038773;28;20071;-60
2022/09/13 07:38:53;;;;;;;6.28;3.17;;;26.10;45.20;;;;;;5053853;28;20063;-62
2022/09/13 07:41:22;;;;;;;7.50;2.65;;;26.10;45.40;;;;;;5040812;28;20056;-60
2022/09/13 07:43:53;;;;;;;4.15;2.72;;;26.10;45.40;;;;;;5045364;28;20083;-62
2022/09/13 07:46:23;;;;;;;4.00;2.70;;;26.10;45.30;;;;;;5039388;28;20045;-62
2022/09/13 07:48:55;;;;;;;5.47;2.80;;;26.20;45.30;;;;;;5038805;28;20044;-62
2022/09/13 07:51:49;;;;;;;3.42;2.28;;;26.20;45.00;;;;;;5045627;28;20081;-62
2022/09/13 07:54:18;;;;;;;3.95;3.03;;;26.20;44.80;;;;;;5053338;28;20049;-66
2022/09/13 07:56:47;;;;;;;3.58;2.58;;;26.20;44.80;;;;;;5032488;28;20140;-61
2022/09/13 07:59:15;;;;;;;3.03;2.47;;;26.30;44.80;;;;;;5055325;28;20071;-62
2022/09/13 08:01:46;;;;;;;4.47;2.22;;;26.30;44.70;;;;;;5047597;28;20143;-62
2022/09/13 08:04:19;;;;;;;3.53;2.45;;;26.30;44.60;;;;;;5055643;28;20296;-62
2022/09/13 08:06:46;;;;;;;5.53;2.83;;;26.30;44.50;;;;;;5044706;28;20056;-62
2022/09/13 08:09:14;;;;;;;9.95;2.78;;;26.30;44.40;;;;;;5049534;28;20045;-62
2022/09/13 08:11:51;;;;;;;7.63;2.50;;;26.30;44.40;;;;;;5051595;28;20128;-62
2022/09/13 08:14:21;;;;;;;4.35;2.58;;;26.30;44.30;;;;;;5051987;28;20073;-61
2022/09/13 08:16:48;;;;;;;8.18;2.92;;;26.30;44.40;;;;;;5048767;28;20492;-62
2022/09/13 08:27:12;;;;;;;16.42;2.80;;;26.40;44.50;;;;;;5047852;28;20109;-59
2022/09/13 08:29:44;;;;;;;2.78;2.22;;;26.50;44.50;;;;;;5058273;28;20048;-59
2022/09/13 08:32:11;;;;;;;2.42;2.20;;;26.50;44.20;;;;;;5047634;28;20048;-66
2022/09/13 08:34:38;;;;;;;3.53;1.95;;;26.50;44.10;;;;;;5056192;28;20048;-62
2022/09/13 08:37:43;;;;;;;5.63;2.58;;;26.50;43.90;;;;;;5036440;28;20053;-61
2022/09/13 08:40:51;;;;;;;4.32;2.00;;;26.50;44.00;;;;;;5064342;28;20066;-60
2022/09/13 08:43:48;;;;;;;4.25;2.13;;;26.60;44.10;;;;;;5029660;28;20055;-60
2022/09/13 08:46:43;;;;;;;2.67;1.55;;;26.60;44.00;;;;;;5051706;28;20067;-64
2022/09/13 08:53:45;;;;;;;2.40;2.00;;;26.70;43.90;;;;;;5054611;28;20408;-61
2022/09/13 08:56:37;;;;;;;4.97;1.85;;;26.80;43.70;;;;;;5032207;28;20041;-62
2022/09/13 08:59:28;;;;;;;1.92;1.80;;;26.80;43.60;;;;;;5049898;28;20552;-61
2022/09/13 09:17:56;;;;;;;3.10;1.80;;;26.90;42.90;;;;;;5056437;28;20119;-61
2022/09/13 09:20:39;;;;;;;4.43;1.90;;;26.90;43.00;;;;;;5056359;28;20060;-67
2022/09/13 09:23:14;;;;;;;1.92;1.77;;;26.80;41.10;;;;;;5056450;28;20053;-62
2022/09/13 09:25:50;;;;;;;7.22;2.17;;;26.20;39.10;;;;;;5056388;28;20049;-62
2022/09/13 09:28:18;;;;;;;4.40;1.92;;;25.40;41.10;;;;;;5056121;28;20049;-62
2022/09/13 09:30:59;;;;;;;5.43;1.92;;;25.10;44.60;;;;;;5056306;28;20049;-62
2022/09/13 09:34:12;;;;;;;2.75;2.20;;;25.10;45.30;;;;;;5055779;28;20402;-64
2022/09/13 09:37:24;;;;;;;3.30;2.38;;;25.30;45.40;;;;;;5052724;28;20068;-61
2022/09/13 09:39:54;;;;;;;3.30;1.63;;;25.50;45.20;;;;;;5036003;28;20442;-61
2022/09/13 09:42:25;;;;;;;3.58;1.70;;;25.70;45.10;;;;;;5036001;28;20049;-61
2022/09/13 09:45:32;;;;;;;6.25;2.10;;;25.90;45.00;;;;;;5034804;28;20041;-60
2022/09/13 09:50:50;;;;;;;4.65;2.08;;;26.20;44.50;;;;;;5251122;23;20061;-65
2022/09/13 09:53:30;;;;;;;4.45;1.95;;;26.30;44.40;;;;;;5029380;28;20037;-61
2022/09/13 09:56:22;;;;;;;5.47;2.13;;;26.40;44.50;;;;;;5041450;28;20045;-61
2022/09/13 10:02:45;;;;;;;1.95;1.73;;;26.70;44.10;;;;;;5051384;28;20043;-62
2022/09/13 10:05:19;;;;;;;3.83;1.52;;;26.80;43.60;;;;;;5053553;28;20045;-61
2022/09/13 10:07:59;;;;;;;5.03;1.63;;;26.80;43.30;;;;;;5037069;28;20078;-62
2022/09/13 10:10:41;;;;;;;3.75;1.38;;;26.90;43.10;;;;;;5048250;28;20052;-62
2022/09/13 10:24:23;;;;;;;1.67;1.58;;;27.00;42.00;;;;;;5048313;28;20044;-67
2022/09/13 10:26:50;;;;;;;2.28;1.27;;;27.00;42.00;;;;;;5029289;28;20045;-67
2022/09/13 10:29:17;;;;;;;3.15;1.80;;;27.00;42.00;;;;;;5043743;28;20073;-62
2022/09/13 10:31:48;;;;;;;3.45;1.60;;;27.00;41.90;;;;;;5047348;28;20045;-67
2022/09/13 10:34:35;;;;;;;6.85;2.03;;;27.00;41.90;;;;;;5054012;28;20127;-63
2022/09/13 10:37:34;;;;;;;3.53;2.28;;;27.00;42.00;;;;;;5027750;28;20123;-63
2022/09/13 10:40:28;;;;;;;2.25;1.50;;;27.00;41.90;;;;;;5015114;28;20045;-62
2022/09/13 10:43:03;;;;;;;3.92;1.50;;;27.00;41.90;;;;;;5024608;28;20042;-62
2022/09/13 10:54:19;;;;;;;3.17;1.40;;;27.10;43.80;;;;;;5022161;28;20053;-66
2022/09/13 10:56:47;;;;;;;1.73;1.50;;;26.90;40.90;;;;;;5027263;28;20045;-62
2022/09/13 10:59:28;;;;;;;1.88;1.23;;;26.20;38.80;;;;;;5031666;28;20045;-62
2022/09/13 11:02:46;;;;;;;3.53;1.38;;;25.30;39.90;;;;;;5018209;28;20046;-63
2022/09/13 11:09:15;;;;;;;4.30;1.50;;;23.50;43.40;;;;;;5014577;28;20085;-62
2022/09/13 11:11:53;;;;;;;1.60;1.48;;;22.70;44.90;;;;;;5027166;28;20045;-63
2022/09/13 11:15:00;;;;;;;1.42;1.33;;;22.40;46.10;;;;;;5038410;28;20049;-61
2022/09/13 11:18:07;;;;;;;2.15;1.55;;;22.10;46.90;;;;;;5026167;28;20576;-60
2022/09/13 11:20:45;;;;;;;2.15;1.25;;;21.70;47.70;;;;;;5038848;28;20235;-58
2022/09/13 11:23:41;;;;;;;3.35;1.92;;;21.40;48.40;;;;;;5038066;28;20046;-57
2022/09/13 11:26:42;;;;;;;3.10;1.65;;;21.20;49.10;;;;;;5037911;28;20052;-58
2022/09/13 11:29:43;;;;;;;3.63;1.70;;;21.10;49.80;;;;;;5037858;28;20060;-58
2022/09/13 11:32:37;;;;;;;2.10;1.60;;;20.90;50.50;;;;;;5025570;28;20053;-58
2022/09/13 11:35:44;;;;;;;3.25;1.60;;;20.80;50.90;;;;;;5038013;28;20099;-59
2022/09/13 11:38:51;;;;;;;1.50;1.40;;;20.70;51.10;;;;;;5034138;28;20041;-60
2022/09/13 11:41:45;;;;;;;4.78;1.63;;;20.60;51.80;;;;;;5005098;28;20452;-60
2022/09/13 11:44:41;;;;;;;2.78;1.83;;;20.60;51.50;;;;;;5019077;28;20137;-61
2022/09/13 11:47:47;;;;;;;1.92;1.13;;;20.60;51.50;;;;;;5015027;28;20049;-60
2022/09/13 11:50:43;;;;;;;1.60;1.40;;;20.60;53.20;;;;;;4998789;28;20054;-58
2022/09/13 11:53:51;;;;;;;2.03;1.20;;;20.70;52.90;;;;;;5017711;28;20049;-59
2022/09/13 11:56:31;;;;;;;1.40;1.30;;;20.80;52.90;;;;;;5000354;28;20060;-60
2022/09/13 11:59:37;;;;;;;1.40;1.30;;;20.90;54.00;;;;;;5018272;28;20045;-59
2022/09/13 12:02:25;;;;;;;1.30;1.20;;;20.90;53.50;;;;;;4997596;28;20309;-60
2022/09/13 12:05:06;;;;;;;1.90;1.40;;;21.00;53.40;;;;;;5018140;28;20103;-60
2022/09/13 12:08:02;;;;;;;2.25;1.25;;;21.10;53.70;;;;;;5016873;28;20053;-60
2022/09/13 12:10:56;;;;;;;2.15;1.10;;;21.10;53.70;;;;;;5015856;28;20401;-60
2022/09/13 12:13:48;;;;;;;2.30;1.20;;;21.10;53.50;;;;;;5016599;28;20167;-60
2022/09/13 12:16:32;;;;;;;1.88;1.52;;;21.10;53.40;;;;;;5016467;28;20150;-61
2022/09/13 12:19:17;;;;;;;1.48;1.38;;;21.20;53.60;;;;;;5015358;28;20117;-60
2022/09/13 12:21:47;;;;;;;1.40;1.30;;;21.20;53.80;;;;;;5008965;28;20045;-60
2022/09/13 12:24:45;;;;;;;1.38;1.27;;;21.30;53.90;;;;;;5015378;28;20060;-58
2022/09/13 12:27:28;;;;;;;2.00;1.20;;;21.30;53.80;;;;;;5016570;28;20319;-58
2022/09/13 12:30:16;;;;;;;1.98;1.20;;;21.30;53.70;;;;;;5014992;28;20056;-57
2022/09/13 12:32:46;;;;;;;1.15;1.08;;;21.40;53.70;;;;;;4996557;28;20053;-58
2022/09/13 12:35:36;;;;;;;1.35;1.25;;;21.40;53.90;;;;;;5016503;28;20795;-58
2022/09/13 12:38:34;;;;;;;1.55;1.45;;;21.50;54.10;;;;;;5020721;28;20045;-58
2022/09/13 12:41:26;;;;;;;1.60;1.20;;;21.50;54.10;;;;;;5015664;28;20052;-59
2022/09/13 12:44:24;;;;;;;3.83;1.20;;;21.50;53.90;;;;;;5019685;28;20045;-59
2022/09/13 12:47:33;;;;;;;1.30;0.93;;;21.50;53.70;;;;;;5014345;28;20053;-60
2022/09/13 12:50:36;;;;;;;3.53;1.17;;;21.60;53.60;;;;;;5020348;28;20677;-58
2022/09/13 12:53:42;;;;;;;1.50;1.20;;;21.60;53.40;;;;;;5018002;28;20068;-58
2022/09/13 12:56:40;;;;;;;2.00;1.10;;;21.70;53.50;;;;;;5014644;28;20048;-57
2022/09/13 12:59:34;;;;;;;1.88;1.63;;;21.70;53.60;;;;;;5001877;28;20054;-59
2022/09/13 13:02:32;;;;;;;2.33;1.23;;;21.70;53.50;;;;;;5015010;28;20050;-60
2022/09/13 13:05:05;;;;;;;1.55;1.23;;;21.70;53.40;;;;;;5023167;28;20057;-58
2022/09/13 13:07:37;;;;;;;4.75;1.50;;;21.70;53.50;;;;;;5012092;28;20057;-58
2022/09/13 13:10:05;;;;;;;1.20;1.10;;;21.70;54.20;;;;;;5005472;28;20120;-59
2022/09/13 13:12:39;;;;;;;2.80;1.50;;;21.70;54.40;;;;;;5019182;28;20067;-61
2022/09/13 13:15:46;;;;;;;6.05;1.30;;;21.70;54.40;;;;;;5014310;28;20489;-58
2022/09/13 13:18:44;;;;;;;1.53;1.10;;;21.70;54.80;;;;;;5011406;28;20048;-59
2022/09/13 13:21:36;;;;;;;2.95;1.40;;;21.70;55.10;;;;;;5007802;28;20049;-59
2022/09/13 13:24:38;;;;;;;4.53;1.30;;;21.70;55.70;;;;;;5000214;28;20041;-59
2022/09/13 13:27:36;;;;;;;3.28;1.55;;;21.70;55.40;;;;;;4993056;28;20223;-58
2022/09/13 13:30:43;;;;;;;7.45;1.38;;;21.70;55.20;;;;;;5012974;28;20055;-59
2022/09/13 13:33:24;;;;;;;2.45;1.33;;;21.70;55.30;;;;;;5012117;28;20054;-58
2022/09/13 13:35:52;;;;;;;1.77;1.60;;;21.70;55.40;;;;;;5014756;28;20053;-58
2022/09/13 13:38:46;;;;;;;1.30;1.20;;;21.70;55.50;;;;;;5015074;28;20072;-59
2022/09/13 13:41:38;;;;;;;2.03;1.42;;;21.70;55.50;;;;;;5000643;28;20054;-59
2022/09/13 13:44:46;;;;;;;1.42;1.10;;;21.70;55.30;;;;;;5014725;28;20148;-58
2022/09/13 13:47:41;;;;;;;1.90;1.20;;;21.70;55.40;;;;;;4996231;28;20364;-58
2022/09/13 13:50:15;;;;;;;2.90;1.05;;;21.70;55.60;;;;;;5002124;28;20065;-60
2022/09/13 13:52:55;;;;;;;2.40;1.60;;;21.70;55.90;;;;;;4994928;28;20143;-59
2022/09/13 13:55:40;;;;;;;3.00;1.30;;;21.70;56.00;;;;;;5013880;28;20128;-59
2022/09/13 13:58:36;;;;;;;1.77;1.30;;;21.70;55.60;;;;;;5013319;28;20140;-59
2022/09/13 14:01:05;;;;;;;1.67;1.50;;;21.70;55.50;;;;;;5015045;28;20500;-58
2022/09/13 14:04:09;;;;;;;1.95;1.63;;;21.80;55.30;;;;;;5016327;28;20088;-59
2022/09/13 14:06:53;;;;;;;2.10;1.30;;;21.80;55.10;;;;;;5015402;28;20425;-60
2022/09/13 14:09:52;;;;;;;3.47;1.55;;;21.80;55.00;;;;;;5017773;28;20472;-60
2022/09/13 14:12:32;;;;;;;1.52;1.10;;;21.80;54.90;;;;;;5023025;28;20404;-60
2022/09/13 14:15:16;;;;;;;1.17;1.15;;;21.80;55.00;;;;;;5004176;28;20124;-58
2022/09/13 14:18:20;;;;;;;1.50;1.38;;;21.80;55.00;;;;;;5016832;28;20509;-60
2022/09/13 14:20:58;;;;;;;1.90;1.80;;;21.70;55.10;;;;;;5020549;28;20060;-58
2022/09/13 14:23:26;;;;;;;3.47;1.40;;;21.70;55.00;;;;;;5013827;28;20489;-59
2022/09/13 14:25:59;;;;;;;1.67;1.55;;;21.80;54.80;;;;;;5015109;28;20041;-59
2022/09/13 14:28:28;;;;;;;1.55;1.45;;;21.80;55.00;;;;;;5020539;28;20057;-59
2022/09/13 14:30:57;;;;;;;1.63;1.52;;;21.80;55.10;;;;;;5010979;28;20061;-59
2022/09/13 14:33:36;;;;;;;1.60;1.42;;;21.80;55.10;;;;;;5007240;28;20042;-60
2022/09/13 14:36:07;;;;;;;1.40;1.30;;;21.70;55.20;;;;;;5022448;28;20081;-61
2022/09/13 14:38:35;;;;;;;2.75;1.30;;;21.60;55.30;;;;;;5016625;28;20042;-60
2022/09/13 14:41:16;;;;;;;1.23;1.13;;;21.60;55.90;;;;;;5026756;28;20042;-59
2022/09/13 14:43:44;;;;;;;1.27;1.17;;;21.60;56.30;;;;;;5024455;28;20698;-59